createdAt,value
2023-03-13T00:03:22.291Z,85.75
2023-03-13T00:06:49.589Z,85.58
2023-03-13T00:10:17.245Z,86.15
2023-03-13T00:13:45.044Z,85.82
2023-03-13T00:17:12.022Z,86.74
2023-03-13T00:20:39.037Z,86.16
2023-03-13T00:24:06.707Z,87.04
2023-03-13T00:27:36.490Z,87.15
2023-03-13T00:31:08.947Z,87.42
2023-03-13T00:34:36.404Z,88.09
2023-03-13T00:38:03.436Z,88.19
2023-03-13T00:41:32.246Z,88.27
2023-03-13T00:44:59.301Z,87.90
2023-03-13T00:48:26.992Z,87.74
2023-03-13T00:51:54.210Z,88.15
2023-03-13T00:55:21.245Z,88.84
2023-03-13T00:58:49.983Z,88.86
2023-03-13T01:02:17.255Z,89.16
2023-03-13T01:05:44.610Z,89.64
2023-03-13T01:09:13.806Z,89.69
2023-03-13T01:12:42.290Z,90.14
2023-03-13T01:16:11.835Z,90.40
2023-03-13T01:19:37.331Z,90.66
2023-03-13T01:23:04.639Z,91.73
2023-03-13T01:26:32.154Z,91.59
2023-03-13T01:29:59.797Z,91.36
2023-03-13T01:33:27.257Z,91.95
2023-03-13T01:36:54.566Z,92.36
2023-03-13T01:40:22.325Z,92.53
2023-03-13T01:43:49.812Z,93.15
2023-03-13T01:47:17.701Z,93.08
2023-03-13T01:51:12.805Z,92.96
2023-03-13T01:54:43.777Z,93.42
2023-03-13T01:58:13.361Z,92.99
2023-03-13T02:01:42.547Z,93.08
2023-03-13T02:05:10.849Z,92.91
2023-03-13T02:08:44.035Z,93.06
2023-03-13T02:12:14.502Z,92.72
2023-03-13T02:15:43.541Z,92.36
2023-03-13T02:19:21.388Z,92.31
2023-03-13T02:22:54.416Z,92.36
2023-03-13T02:26:21.720Z,92.25
2023-03-13T02:29:48.950Z,92.42
2023-03-13T02:33:18.065Z,92.67
2023-03-13T02:36:47.451Z,93.12
2023-03-13T02:40:22.298Z,92.98
2023-03-13T02:43:50.064Z,93.04
2023-03-13T02:47:20.827Z,93.33
2023-03-13T02:50:48.081Z,93.25
2023-03-13T02:54:20.769Z,93.04
2023-03-13T02:57:48.550Z,93.11
2023-03-13T03:01:15.618Z,93.10
2023-03-13T03:04:43.264Z,93.39
2023-03-13T03:08:11.361Z,93.90
2023-03-13T03:11:39.299Z,93.72
2023-03-13T03:15:11.632Z,94.00
2023-03-13T03:18:42.669Z,94.38
2023-03-13T03:22:09.826Z,94.64
2023-03-13T03:25:36.983Z,95.02
2023-03-13T03:29:05.636Z,95.39
2023-03-13T03:32:33.018Z,96.10
2023-03-13T03:36:05.191Z,96.39
2023-03-13T03:39:32.685Z,96.65
2023-03-13T03:43:00.664Z,97.22
2023-03-13T03:46:29.000Z,97.14
2023-03-13T03:49:56.418Z,97.70
2023-03-13T03:53:23.993Z,98.02
2023-03-13T03:56:51.271Z,98.27
2023-03-13T04:00:20.904Z,98.61
2023-03-13T04:03:50.115Z,98.95
2023-03-13T04:07:19.089Z,99.30
2023-03-13T04:10:46.370Z,99.31
2023-03-13T04:14:13.930Z,99.30
2023-03-13T04:17:41.192Z,99.71
2023-03-13T04:21:10.304Z,99.87
2023-03-13T04:24:42.784Z,99.72
2023-03-13T04:28:10.349Z,99.49
2023-03-13T04:31:42.732Z,99.80
2023-03-13T04:35:30.361Z,100.00
2023-03-13T04:39:15.636Z,99.97
2023-03-13T04:43:10.392Z,100.00
2023-03-13T04:47:00.734Z,100.00
2023-03-13T04:50:45.944Z,99.87
2023-03-13T04:54:44.228Z,99.72
2023-03-13T04:58:22.263Z,99.64
2023-03-13T05:02:22.214Z,99.15
2023-03-13T05:05:49.453Z,98.93
2023-03-13T05:09:39.403Z,99.01
2023-03-13T05:13:30.158Z,99.25
2023-03-13T05:17:14.282Z,99.71
2023-03-13T05:21:12.611Z,99.82
2023-03-13T05:24:56.361Z,99.98
2023-03-13T05:28:29.593Z,99.59
2023-03-13T05:32:15.359Z,99.66
2023-03-13T05:35:56.396Z,99.66
2023-03-13T05:39:24.115Z,99.32
2023-03-13T05:43:13.708Z,99.33
2023-03-13T05:46:47.919Z,98.84
2023-03-13T05:50:30.328Z,98.86
2023-03-13T05:54:19.427Z,98.92
2023-03-13T05:58:02.670Z,99.02
2023-03-13T06:01:56.066Z,98.86
2023-03-13T06:05:30.886Z,98.66
2023-03-13T06:08:59.668Z,98.42
2023-03-13T06:12:29.968Z,98.33
2023-03-13T06:15:58.799Z,98.16
2023-03-13T06:19:42.243Z,98.47
2023-03-13T06:23:09.245Z,97.75
2023-03-13T06:26:36.508Z,97.54
2023-03-13T06:30:04.033Z,97.62
2023-03-13T06:33:31.225Z,97.49
2023-03-13T06:36:58.963Z,97.43
2023-03-13T06:40:26.629Z,97.08
2023-03-13T06:43:53.615Z,97.14
2023-03-13T06:47:20.936Z,96.96
2023-03-13T06:50:48.103Z,97.12
2023-03-13T06:54:15.147Z,96.73
2023-03-13T06:57:42.331Z,96.77
2023-03-13T07:01:11.696Z,96.70
2023-03-13T07:04:38.828Z,96.61
2023-03-13T07:08:06.705Z,96.40
2023-03-13T07:11:34.070Z,96.18
2023-03-13T07:15:01.068Z,95.97
2023-03-13T07:18:28.572Z,95.72
2023-03-13T07:21:57.079Z,95.15
2023-03-13T07:25:24.293Z,94.92
2023-03-13T07:28:51.592Z,94.51
2023-03-13T07:32:19.059Z,94.25
2023-03-13T07:35:51.147Z,93.77
2023-03-13T07:39:18.347Z,93.62
2023-03-13T07:42:45.555Z,93.53
2023-03-13T07:46:16.012Z,93.43
2023-03-13T07:49:44.275Z,93.43
2023-03-13T07:53:14.166Z,93.21
2023-03-13T07:56:42.182Z,92.82
2023-03-13T08:00:16.746Z,92.54
2023-03-13T08:03:45.326Z,92.04
2023-03-13T08:07:13.540Z,91.68
2023-03-13T08:10:40.723Z,90.98
2023-03-13T08:14:08.028Z,90.97
2023-03-13T08:17:35.431Z,90.98
2023-03-13T08:21:06.398Z,90.90
2023-03-13T08:24:33.473Z,90.66
2023-03-13T08:28:02.479Z,90.47
2023-03-13T08:31:32.731Z,89.85
2023-03-13T08:34:59.733Z,89.35
2023-03-13T08:38:27.062Z,88.89
2023-03-13T08:41:54.108Z,88.78
2023-03-13T08:45:21.281Z,88.34
2023-03-13T08:48:52.435Z,87.54
2023-03-13T08:52:19.413Z,87.59
2023-03-13T08:55:53.322Z,87.23
2023-03-13T08:59:20.555Z,87.04
2023-03-13T09:02:47.576Z,87.00
2023-03-13T09:06:15.324Z,86.73
2023-03-13T09:09:42.439Z,87.32
2023-03-13T09:13:10.002Z,86.79
2023-03-13T09:16:37.376Z,86.51
2023-03-13T09:20:05.879Z,85.27
2023-03-13T09:23:33.006Z,85.58
2023-03-13T09:27:01.636Z,84.75
2023-03-13T09:30:29.131Z,84.03
2023-03-13T09:33:58.417Z,83.71
2023-03-13T09:37:26.036Z,84.01
2023-03-13T09:41:05.789Z,84.09
2023-03-13T09:44:40.209Z,84.68
2023-03-13T09:48:13.202Z,84.43
2023-03-13T09:51:44.821Z,85.36
2023-03-13T09:55:21.593Z,85.18
2023-03-13T09:58:55.065Z,85.65
2023-03-13T10:02:29.651Z,85.55
2023-03-13T10:05:59.690Z,85.66
2023-03-13T10:09:32.409Z,85.39
2023-03-13T10:13:11.530Z,85.36
2023-03-13T10:16:45.832Z,85.96
2023-03-13T10:20:22.381Z,85.95
2023-03-13T10:23:54.910Z,86.27
2023-03-13T10:27:21.967Z,86.84
2023-03-13T10:30:54.551Z,87.14
2023-03-13T10:34:21.896Z,87.54
2023-03-13T10:37:48.955Z,87.71
2023-03-13T10:41:27.866Z,88.23
2023-03-13T10:44:59.669Z,88.70
2023-03-13T10:48:31.379Z,89.00
2023-03-13T10:52:00.356Z,88.84
2023-03-13T10:55:28.598Z,88.84
2023-03-13T10:58:56.282Z,89.08
2023-03-13T11:02:34.076Z,89.36
2023-03-13T11:06:04.782Z,89.53
2023-03-13T11:09:32.394Z,89.94
2023-03-13T11:13:01.189Z,90.44
2023-03-13T11:16:30.692Z,91.09
2023-03-13T11:20:06.340Z,91.86
2023-03-13T11:23:40.801Z,92.12
2023-03-13T11:27:16.862Z,92.62
2023-03-13T11:31:02.769Z,93.20
2023-03-13T11:34:38.895Z,94.39
2023-03-13T11:38:14.553Z,95.01
2023-03-13T11:41:54.080Z,95.77
2023-03-13T11:45:33.297Z,96.65
2023-03-13T11:49:24.453Z,96.58
2023-03-13T11:53:30.826Z,97.79
2023-03-13T11:57:14.699Z,98.19
2023-03-13T12:00:49.049Z,99.14
2023-03-13T12:04:23.847Z,99.69
2023-03-13T12:07:56.253Z,99.61
2023-03-13T12:11:28.897Z,99.96
2023-03-13T12:15:00.954Z,100.00
2023-03-13T12:18:34.430Z,100.00
2023-03-13T12:22:08.381Z,100.00
2023-03-13T12:25:41.116Z,100.00
2023-03-13T12:29:18.914Z,100.00
2023-03-13T12:32:54.001Z,100.00
2023-03-13T12:36:29.332Z,100.00
2023-03-13T12:40:00.492Z,100.00
2023-03-13T12:43:32.821Z,100.00
2023-03-13T12:47:09.471Z,100.00
2023-03-13T12:50:45.468Z,100.00
2023-03-13T12:54:46.419Z,100.00
2023-03-13T12:58:40.711Z,100.00
2023-03-13T13:02:20.836Z,100.00
2023-03-13T13:06:07.243Z,100.00
2023-03-13T13:09:37.242Z,100.00
2023-03-13T13:13:32.343Z,100.00
2023-03-13T13:17:16.468Z,100.00
2023-03-13T13:20:58.868Z,100.00
2023-03-13T13:24:52.928Z,100.00
2023-03-13T13:28:40.117Z,99.97
2023-03-13T13:32:15.337Z,99.50
2023-03-13T13:35:42.874Z,99.30
2023-03-13T13:39:34.009Z,98.56
2023-03-13T13:43:02.936Z,97.87
2023-03-13T13:46:33.460Z,97.52
2023-03-13T13:50:01.516Z,97.47
2023-03-13T13:53:34.812Z,97.00
2023-03-13T13:57:04.038Z,96.54
2023-03-13T14:00:35.970Z,96.05
2023-03-13T14:04:13.962Z,95.81
2023-03-13T14:08:01.372Z,95.25
2023-03-13T14:11:34.572Z,94.75
2023-03-13T14:15:15.868Z,94.26
2023-03-13T14:18:44.869Z,93.89
2023-03-13T14:22:14.416Z,93.77
2023-03-13T14:25:45.248Z,93.42
2023-03-13T14:29:20.614Z,93.31
2023-03-13T14:32:48.088Z,92.93
2023-03-13T14:36:15.099Z,92.56
2023-03-13T14:39:48.763Z,92.57
2023-03-13T14:43:33.384Z,92.20
2023-03-13T14:47:05.505Z,92.17
2023-03-13T14:50:33.181Z,91.79
2023-03-13T14:54:01.918Z,91.49
2023-03-13T14:57:29.804Z,91.62
2023-03-13T15:00:58.926Z,91.58
2023-03-13T15:04:54.673Z,91.97
2023-03-13T15:08:24.071Z,92.09
2023-03-13T15:12:02.577Z,91.94
2023-03-13T15:15:29.766Z,91.46
2023-03-13T15:18:57.700Z,90.29
2023-03-13T15:22:30.145Z,89.60
2023-03-13T15:25:57.238Z,88.70
2023-03-13T15:29:24.362Z,88.28
2023-03-13T15:32:52.141Z,87.98
2023-03-13T15:36:19.424Z,87.98
2023-03-13T15:39:46.869Z,87.96
2023-03-13T15:43:14.715Z,87.14
2023-03-13T15:46:41.805Z,86.85
2023-03-13T15:50:12.339Z,86.92
2023-03-13T15:53:39.542Z,86.80
2023-03-13T15:57:06.668Z,86.71
2023-03-13T16:00:33.665Z,86.80
2023-03-13T16:04:00.791Z,87.19
2023-03-13T16:07:28.166Z,87.07
2023-03-13T16:10:55.960Z,86.98
2023-03-13T16:14:23.155Z,87.09
2023-03-13T16:17:50.665Z,86.81
2023-03-13T16:21:23.083Z,86.63
2023-03-13T16:24:50.132Z,86.49
2023-03-13T16:28:17.787Z,86.70
2023-03-13T16:31:45.110Z,86.36
2023-03-13T16:35:12.610Z,86.54
2023-03-13T16:38:39.600Z,86.51
2023-03-13T16:42:07.343Z,86.75
2023-03-13T16:45:34.378Z,86.93
2023-03-13T16:49:01.471Z,87.17
2023-03-13T16:52:28.717Z,87.65
2023-03-13T16:55:56.443Z,88.02
2023-03-13T16:59:26.967Z,88.14
2023-03-13T17:03:01.729Z,88.01
2023-03-13T17:06:33.296Z,87.99
2023-03-13T17:10:06.179Z,87.99
2023-03-13T17:13:33.631Z,87.98
2023-03-13T17:17:01.277Z,88.20
2023-03-13T17:20:32.390Z,88.25
2023-03-13T17:24:03.600Z,88.43
2023-03-13T17:27:46.480Z,88.41
2023-03-13T17:31:20.235Z,88.59
2023-03-13T17:34:48.345Z,88.66
2023-03-13T17:38:21.171Z,88.90
2023-03-13T17:41:48.695Z,88.82
2023-03-13T17:45:18.619Z,88.92
2023-03-13T17:48:47.565Z,89.01
2023-03-13T17:52:21.315Z,89.08
2023-03-13T17:55:51.672Z,89.30
2023-03-13T17:59:22.723Z,89.44
2023-03-13T18:02:50.509Z,89.33
2023-03-13T18:06:24.390Z,89.33
2023-03-13T18:09:57.590Z,89.32
2023-03-13T18:13:25.252Z,89.66
2023-03-13T18:16:57.315Z,89.72
2023-03-13T18:20:28.063Z,89.80
2023-03-13T18:24:00.403Z,90.04
2023-03-13T18:27:32.747Z,90.18
2023-03-13T18:31:01.405Z,90.09
2023-03-13T18:34:30.256Z,90.04
2023-03-13T18:38:00.121Z,89.97
2023-03-13T18:41:27.436Z,89.89
2023-03-13T18:44:54.725Z,90.08
2023-03-13T18:48:39.778Z,90.03
2023-03-13T18:52:11.703Z,90.10
2023-03-13T18:55:38.833Z,90.04
2023-03-13T18:59:06.352Z,90.14
2023-03-13T19:02:33.451Z,89.98
2023-03-13T19:06:01.384Z,90.18
2023-03-13T19:09:46.464Z,90.14
2023-03-13T19:13:16.412Z,90.30
2023-03-13T19:16:50.160Z,90.16
2023-03-13T19:20:21.058Z,90.42
2023-03-13T19:23:48.616Z,90.21
2023-03-13T19:27:18.270Z,90.31
2023-03-13T19:30:44.638Z,90.34
2023-03-13T19:34:12.716Z,90.58
2023-03-13T19:37:40.406Z,90.62
2023-03-13T19:41:08.357Z,90.70
2023-03-13T19:44:36.033Z,90.83
2023-03-13T19:48:03.895Z,90.84
2023-03-13T19:51:32.805Z,90.83
2023-03-13T19:55:05.187Z,90.79
2023-03-13T19:58:32.648Z,90.93
2023-03-13T20:02:03.298Z,90.79
2023-03-13T20:05:30.932Z,90.81
2023-03-13T20:09:03.740Z,90.60
2023-03-13T20:12:31.262Z,90.69
2023-03-13T20:15:59.725Z,90.77
2023-03-13T20:19:56.016Z,90.82
2023-03-13T20:23:23.088Z,90.94
2023-03-13T20:26:50.432Z,90.97
2023-03-13T20:30:18.409Z,90.92
2023-03-13T20:33:45.743Z,90.81
2023-03-13T20:37:12.843Z,90.63
2023-03-13T20:40:39.973Z,90.75
2023-03-13T20:44:07.241Z,90.33
2023-03-13T20:47:34.531Z,89.78
2023-03-13T20:51:02.198Z,89.47
2023-03-13T20:54:29.495Z,89.09
2023-03-13T20:57:56.731Z,88.87
2023-03-13T21:01:26.055Z,88.95
2023-03-13T21:04:55.005Z,88.82
2023-03-13T21:08:22.467Z,88.70
2023-03-13T21:11:49.705Z,88.24
2023-03-13T21:15:17.512Z,88.08
2023-03-13T21:18:45.126Z,88.02
2023-03-13T21:22:12.949Z,87.74
2023-03-13T21:25:40.075Z,87.26
2023-03-13T21:29:09.308Z,87.12
2023-03-13T21:32:39.742Z,87.10
2023-03-13T21:36:07.867Z,86.77
2023-03-13T21:39:34.894Z,86.42
2023-03-13T21:43:04.288Z,86.69
2023-03-13T21:46:33.728Z,86.38
2023-03-13T21:50:01.432Z,85.78
2023-03-13T21:53:28.785Z,85.70
2023-03-13T21:56:57.295Z,85.94
2023-03-13T22:00:25.259Z,85.78
2023-03-13T22:03:52.881Z,85.31
2023-03-13T22:07:20.090Z,85.34
2023-03-13T22:10:52.351Z,85.12
2023-03-13T22:14:21.548Z,85.16
2023-03-13T22:17:48.607Z,84.47
2023-03-13T22:21:17.535Z,83.97
2023-03-13T22:24:44.790Z,83.95
2023-03-13T22:28:12.544Z,82.94
2023-03-13T22:31:39.770Z,82.76
2023-03-13T22:35:08.758Z,82.67
2023-03-13T22:38:39.037Z,82.66
2023-03-13T22:42:06.724Z,82.41
2023-03-13T22:45:34.123Z,82.39
2023-03-13T22:49:01.212Z,82.25
2023-03-13T22:52:31.093Z,82.41
2023-03-13T22:55:58.231Z,82.01
2023-03-13T22:59:25.449Z,82.20
2023-03-13T23:02:54.728Z,81.80
2023-03-13T23:06:24.151Z,81.96
2023-03-13T23:09:51.282Z,81.80
2023-03-13T23:13:18.457Z,82.00
2023-03-13T23:16:45.467Z,82.29
2023-03-13T23:20:14.630Z,82.20
2023-03-13T23:23:43.040Z,82.37
2023-03-13T23:27:10.051Z,82.35
2023-03-13T23:30:37.827Z,82.54
2023-03-13T23:34:05.003Z,82.66
2023-03-13T23:37:33.289Z,82.84
2023-03-13T23:41:00.363Z,82.94
2023-03-13T23:44:27.541Z,83.12
2023-03-13T23:47:57.046Z,83.32
2023-03-13T23:51:24.300Z,83.48
2023-03-13T23:54:53.256Z,83.57
2023-03-13T23:58:20.357Z,83.68
